sensor_id;sensor_type;location;lat;lon;timestamp;temperature;humidity
69626;DHT22;56847;51.984;5.088;2023-02-03T00:02:07;11.30;83.70
69626;DHT22;56847;51.984;5.088;2023-02-03T00:04:34;11.30;83.80
69626;DHT22;56847;51.984;5.088;2023-02-03T00:07:01;11.30;83.80
69626;DHT22;56847;51.984;5.088;2023-02-03T00:09:28;11.30;83.80
69626;DHT22;56847;51.984;5.088;2023-02-03T00:11:55;11.30;83.60
69626;DHT22;56847;51.984;5.088;2023-02-03T00:14:22;11.30;83.80
69626;DHT22;56847;51.984;5.088;2023-02-03T00:16:49;11.30;83.70
69626;DHT22;56847;51.984;5.088;2023-02-03T00:19:15;11.30;83.70
69626;DHT22;56847;51.984;5.088;2023-02-03T00:21:43;11.30;83.80
69626;DHT22;56847;51.984;5.088;2023-02-03T00:24:10;11.30;83.40
69626;DHT22;56847;51.984;5.088;2023-02-03T00:26:42;11.30;83.50
69626;DHT22;56847;51.984;5.088;2023-02-03T00:29:09;11.30;83.40
69626;DHT22;56847;51.984;5.088;2023-02-03T00:31:36;11.30;83.30
69626;DHT22;56847;51.984;5.088;2023-02-03T00:34:04;11.30;83.30
69626;DHT22;56847;51.984;5.088;2023-02-03T00:36:31;11.30;83.40
69626;DHT22;56847;51.984;5.088;2023-02-03T00:38:59;11.30;83.60
69626;DHT22;56847;51.984;5.088;2023-02-03T00:41:29;11.30;83.40
69626;DHT22;56847;51.984;5.088;2023-02-03T00:43:57;11.30;83.20
69626;DHT22;56847;51.984;5.088;2023-02-03T00:46:24;11.30;83.20
69626;DHT22;56847;51.984;5.088;2023-02-03T00:48:51;11.30;83.30
69626;DHT22;56847;51.984;5.088;2023-02-03T00:51:18;11.30;83.40
69626;DHT22;56847;51.984;5.088;2023-02-03T00:53:46;11.30;83.50
69626;DHT22;56847;51.984;5.088;2023-02-03T00:56:13;11.30;83.50
69626;DHT22;56847;51.984;5.088;2023-02-03T00:58:41;11.30;83.40
69626;DHT22;56847;51.984;5.088;2023-02-03T01:01:08;11.30;83.30
69626;DHT22;56847;51.984;5.088;2023-02-03T01:03:35;11.30;83.40
69626;DHT22;56847;51.984;5.088;2023-02-03T01:06:17;11.30;83.60
69626;DHT22;56847;51.984;5.088;2023-02-03T01:08:44;11.30;83.30
69626;DHT22;56847;51.984;5.088;2023-02-03T01:11:14;11.30;83.50
69626;DHT22;56847;51.984;5.088;2023-02-03T01:13:43;11.40;83.30
69626;DHT22;56847;51.984;5.088;2023-02-03T01:16:11;11.30;83.50
69626;DHT22;56847;51.984;5.088;2023-02-03T01:18:39;11.30;83.40
69626;DHT22;56847;51.984;5.088;2023-02-03T01:21:12;11.30;83.60
69626;DHT22;56847;51.984;5.088;2023-02-03T01:23:39;11.30;83.60
69626;DHT22;56847;51.984;5.088;2023-02-03T01:26:14;11.30;83.80
69626;DHT22;56847;51.984;5.088;2023-02-03T01:28:41;11.30;83.90
69626;DHT22;56847;51.984;5.088;2023-02-03T01:31:15;11.30;83.70
69626;DHT22;56847;51.984;5.088;2023-02-03T01:33:43;11.30;83.40
69626;DHT22;56847;51.984;5.088;2023-02-03T01:36:15;11.30;83.80
69626;DHT22;56847;51.984;5.088;2023-02-03T01:38:44;11.30;83.70
69626;DHT22;56847;51.984;5.088;2023-02-03T01:41:14;11.30;83.90
69626;DHT22;56847;51.984;5.088;2023-02-03T01:43:46;11.30;83.80
69626;DHT22;56847;51.984;5.088;2023-02-03T01:49:18;11.30;83.90
69626;DHT22;56847;51.984;5.088;2023-02-03T01:51:48;11.30;83.80
69626;DHT22;56847;51.984;5.088;2023-02-03T01:54:20;11.30;83.70
69626;DHT22;56847;51.984;5.088;2023-02-03T01:56:53;11.30;83.90
69626;DHT22;56847;51.984;5.088;2023-02-03T01:59:22;11.30;83.90
69626;DHT22;56847;51.984;5.088;2023-02-03T02:01:50;11.20;84.00
69626;DHT22;56847;51.984;5.088;2023-02-03T02:04:18;11.30;84.30
69626;DHT22;56847;51.984;5.088;2023-02-03T02:06:46;11.30;84.10
69626;DHT22;56847;51.984;5.088;2023-02-03T02:09:15;11.30;84.10
69626;DHT22;56847;51.984;5.088;2023-02-03T02:11:44;11.30;84.20
69626;DHT22;56847;51.984;5.088;2023-02-03T02:14:12;11.30;84.10
69626;DHT22;56847;51.984;5.088;2023-02-03T02:16:55;11.30;83.90
69626;DHT22;56847;51.984;5.088;2023-02-03T02:19:56;11.30;83.80
69626;DHT22;56847;51.984;5.088;2023-02-03T02:33:50;11.40;82.90
69626;DHT22;56847;51.984;5.088;2023-02-03T02:36:30;11.40;82.90
69626;DHT22;56847;51.984;5.088;2023-02-03T02:39:22;11.40;83.00
69626;DHT22;56847;51.984;5.088;2023-02-03T02:42:13;11.50;83.00
69626;DHT22;56847;51.984;5.088;2023-02-03T02:44:56;11.50;83.10
69626;DHT22;56847;51.984;5.088;2023-02-03T02:47:24;11.40;83.00
69626;DHT22;56847;51.984;5.088;2023-02-03T02:50:01;11.40;83.00
69626;DHT22;56847;51.984;5.088;2023-02-03T02:52:31;11.40;83.10
69626;DHT22;56847;51.984;5.088;2023-02-03T02:55:09;11.40;82.80
69626;DHT22;56847;51.984;5.088;2023-02-03T02:57:38;11.40;82.80
69626;DHT22;56847;51.984;5.088;2023-02-03T03:00:06;11.40;83.10
69626;DHT22;56847;51.984;5.088;2023-02-03T03:02:35;11.40;82.90
69626;DHT22;56847;51.984;5.088;2023-02-03T03:05:04;11.40;83.00
69626;DHT22;56847;51.984;5.088;2023-02-03T03:07:55;11.40;82.70
69626;DHT22;56847;51.984;5.088;2023-02-03T03:10:27;11.30;82.80
69626;DHT22;56847;51.984;5.088;2023-02-03T03:13:01;11.30;82.80
69626;DHT22;56847;51.984;5.088;2023-02-03T03:15:31;11.30;82.60
69626;DHT22;56847;51.984;5.088;2023-02-03T03:18:13;11.30;82.90
69626;DHT22;56847;51.984;5.088;2023-02-03T03:20:42;11.30;83.00
69626;DHT22;56847;51.984;5.088;2023-02-03T03:23:27;11.40;83.10
69626;DHT22;56847;51.984;5.088;2023-02-03T03:26:09;11.30;82.60
69626;DHT22;56847;51.984;5.088;2023-02-03T03:28:51;11.40;83.10
69626;DHT22;56847;51.984;5.088;2023-02-03T03:31:19;11.40;82.70
69626;DHT22;56847;51.984;5.088;2023-02-03T03:33:47;11.40;82.50
69626;DHT22;56847;51.984;5.088;2023-02-03T03:36:31;11.40;82.50
69626;DHT22;56847;51.984;5.088;2023-02-03T03:41:55;11.50;82.50
69626;DHT22;56847;51.984;5.088;2023-02-03T03:44:29;11.50;82.40
69626;DHT22;56847;51.984;5.088;2023-02-03T03:47:25;11.50;82.40
69626;DHT22;56847;51.984;5.088;2023-02-03T03:49:54;11.60;82.30
69626;DHT22;56847;51.984;5.088;2023-02-03T03:52:26;11.60;82.10
69626;DHT22;56847;51.984;5.088;2023-02-03T03:54:55;11.60;82.00
69626;DHT22;56847;51.984;5.088;2023-02-03T03:57:31;11.60;82.00
69626;DHT22;56847;51.984;5.088;2023-02-03T04:00:02;11.60;82.10
69626;DHT22;56847;51.984;5.088;2023-02-03T04:02:38;11.60;81.70
69626;DHT22;56847;51.984;5.088;2023-02-03T04:05:07;11.60;81.70
69626;DHT22;56847;51.984;5.088;2023-02-03T04:28:56;11.60;81.30
69626;DHT22;56847;51.984;5.088;2023-02-03T04:31:23;11.60;81.00
69626;DHT22;56847;51.984;5.088;2023-02-03T04:33:50;11.60;81.40
69626;DHT22;56847;51.984;5.088;2023-02-03T04:36:17;11.60;81.60
69626;DHT22;56847;51.984;5.088;2023-02-03T04:38:44;11.60;81.60
69626;DHT22;56847;51.984;5.088;2023-02-03T04:41:11;11.70;81.00
69626;DHT22;56847;51.984;5.088;2023-02-03T04:43:38;11.70;81.50
69626;DHT22;56847;51.984;5.088;2023-02-03T04:46:05;11.70;81.30
69626;DHT22;56847;51.984;5.088;2023-02-03T04:48:32;11.70;80.90
69626;DHT22;56847;51.984;5.088;2023-02-03T04:51:04;11.70;81.30
69626;DHT22;56847;51.984;5.088;2023-02-03T04:53:31;11.70;81.50
69626;DHT22;56847;51.984;5.088;2023-02-03T04:55:58;11.70;81.20
69626;DHT22;56847;51.984;5.088;2023-02-03T04:58:25;11.70;81.50
69626;DHT22;56847;51.984;5.088;2023-02-03T05:00:53;11.70;81.50
69626;DHT22;56847;51.984;5.088;2023-02-03T05:03:20;11.80;81.50
69626;DHT22;56847;51.984;5.088;2023-02-03T05:05:50;11.80;81.10
69626;DHT22;56847;51.984;5.088;2023-02-03T05:08:17;11.80;81.40
69626;DHT22;56847;51.984;5.088;2023-02-03T05:10:44;11.80;81.20
69626;DHT22;56847;51.984;5.088;2023-02-03T05:13:11;11.70;80.40
69626;DHT22;56847;51.984;5.088;2023-02-03T05:15:38;11.70;81.00
69626;DHT22;56847;51.984;5.088;2023-02-03T05:18:05;11.70;80.40
69626;DHT22;56847;51.984;5.088;2023-02-03T05:20:32;11.70;80.40
69626;DHT22;56847;51.984;5.088;2023-02-03T05:22:59;11.70;80.10
69626;DHT22;56847;51.984;5.088;2023-02-03T05:25:26;11.70;80.90
69626;DHT22;56847;51.984;5.088;2023-02-03T05:27:53;11.70;80.80
69626;DHT22;56847;51.984;5.088;2023-02-03T05:30:20;11.70;80.80
69626;DHT22;56847;51.984;5.088;2023-02-03T05:32:48;11.70;80.80
69626;DHT22;56847;51.984;5.088;2023-02-03T05:35:15;11.70;80.60
69626;DHT22;56847;51.984;5.088;2023-02-03T05:37:44;11.70;80.20
69626;DHT22;56847;51.984;5.088;2023-02-03T05:40:12;11.70;80.60
69626;DHT22;56847;51.984;5.088;2023-02-03T05:42:58;11.70;80.30
69626;DHT22;56847;51.984;5.088;2023-02-03T05:45:24;11.70;80.50
69626;DHT22;56847;51.984;5.088;2023-02-03T05:47:52;11.70;79.90
69626;DHT22;56847;51.984;5.088;2023-02-03T05:50:19;11.70;80.00
69626;DHT22;56847;51.984;5.088;2023-02-03T05:52:48;11.70;80.30
69626;DHT22;56847;51.984;5.088;2023-02-03T05:55:15;11.70;80.40
69626;DHT22;56847;51.984;5.088;2023-02-03T05:57:42;11.70;79.90
69626;DHT22;56847;51.984;5.088;2023-02-03T06:00:10;11.70;80.30
69626;DHT22;56847;51.984;5.088;2023-02-03T06:02:40;11.70;80.40
69626;DHT22;56847;51.984;5.088;2023-02-03T06:05:07;11.60;80.00
69626;DHT22;56847;51.984;5.088;2023-02-03T06:07:34;11.60;80.40
69626;DHT22;56847;51.984;5.088;2023-02-03T06:10:01;11.60;80.50
69626;DHT22;56847;51.984;5.088;2023-02-03T06:12:28;11.60;80.30
69626;DHT22;56847;51.984;5.088;2023-02-03T06:14:55;11.60;80.00
69626;DHT22;56847;51.984;5.088;2023-02-03T06:17:22;11.60;80.40
69626;DHT22;56847;51.984;5.088;2023-02-03T06:19:49;11.60;80.30
69626;DHT22;56847;51.984;5.088;2023-02-03T06:22:15;11.60;80.40
69626;DHT22;56847;51.984;5.088;2023-02-03T06:24:42;11.60;80.10
69626;DHT22;56847;51.984;5.088;2023-02-03T06:27:11;11.60;80.40
69626;DHT22;56847;51.984;5.088;2023-02-03T06:29:38;11.60;80.40
69626;DHT22;56847;51.984;5.088;2023-02-03T06:32:05;11.60;80.10
69626;DHT22;56847;51.984;5.088;2023-02-03T06:34:32;11.60;80.40
69626;DHT22;56847;51.984;5.088;2023-02-03T06:36:59;11.60;80.40
69626;DHT22;56847;51.984;5.088;2023-02-03T06:39:26;11.60;80.50
69626;DHT22;56847;51.984;5.088;2023-02-03T06:41:53;11.60;80.40
69626;DHT22;56847;51.984;5.088;2023-02-03T06:44:21;11.60;80.60
69626;DHT22;56847;51.984;5.088;2023-02-03T06:46:48;11.60;80.00
69626;DHT22;56847;51.984;5.088;2023-02-03T06:49:16;11.70;80.40
69626;DHT22;56847;51.984;5.088;2023-02-03T06:51:45;11.70;80.10
69626;DHT22;56847;51.984;5.088;2023-02-03T06:54:12;11.70;80.40
69626;DHT22;56847;51.984;5.088;2023-02-03T06:56:39;11.70;80.40
69626;DHT22;56847;51.984;5.088;2023-02-03T06:59:06;11.70;80.40
69626;DHT22;56847;51.984;5.088;2023-02-03T07:01:35;11.70;80.50
69626;DHT22;56847;51.984;5.088;2023-02-03T07:04:03;11.70;80.30
69626;DHT22;56847;51.984;5.088;2023-02-03T07:06:31;11.70;80.40
69626;DHT22;56847;51.984;5.088;2023-02-03T07:09:02;11.70;80.40
69626;DHT22;56847;51.984;5.088;2023-02-03T07:11:30;11.70;80.60
69626;DHT22;56847;51.984;5.088;2023-02-03T07:13:57;11.70;80.70
69626;DHT22;56847;51.984;5.088;2023-02-03T07:16:27;11.70;80.90
69626;DHT22;56847;51.984;5.088;2023-02-03T07:18:54;11.70;80.50
69626;DHT22;56847;51.984;5.088;2023-02-03T07:21:24;11.70;80.40
69626;DHT22;56847;51.984;5.088;2023-02-03T07:23:55;11.70;80.50
69626;DHT22;56847;51.984;5.088;2023-02-03T07:26:22;11.70;80.20
69626;DHT22;56847;51.984;5.088;2023-02-03T07:28:54;11.70;80.10
69626;DHT22;56847;51.984;5.088;2023-02-03T07:31:24;11.70;80.10
69626;DHT22;56847;51.984;5.088;2023-02-03T07:33:52;11.70;80.20
69626;DHT22;56847;51.984;5.088;2023-02-03T07:36:20;11.80;80.60
69626;DHT22;56847;51.984;5.088;2023-02-03T07:38:46;11.80;80.20
69626;DHT22;56847;51.984;5.088;2023-02-03T07:41:13;11.80;80.70
69626;DHT22;56847;51.984;5.088;2023-02-03T07:43:43;11.80;80.60
69626;DHT22;56847;51.984;5.088;2023-02-03T07:46:10;11.80;80.40
69626;DHT22;56847;51.984;5.088;2023-02-03T07:48:38;11.80;80.50
69626;DHT22;56847;51.984;5.088;2023-02-03T07:51:04;11.90;80.50
69626;DHT22;56847;51.984;5.088;2023-02-03T07:53:31;11.80;80.20
69626;DHT22;56847;51.984;5.088;2023-02-03T07:56:03;11.90;80.60
69626;DHT22;56847;51.984;5.088;2023-02-03T07:58:30;11.90;80.30
69626;DHT22;56847;51.984;5.088;2023-02-03T08:00:57;11.90;80.00
69626;DHT22;56847;51.984;5.088;2023-02-03T08:03:24;11.90;80.30
69626;DHT22;56847;51.984;5.088;2023-02-03T08:05:51;11.90;80.40
69626;DHT22;56847;51.984;5.088;2023-02-03T08:08:19;11.90;80.50
69626;DHT22;56847;51.984;5.088;2023-02-03T08:10:45;11.90;80.20
69626;DHT22;56847;51.984;5.088;2023-02-03T08:13:12;11.90;80.50
69626;DHT22;56847;51.984;5.088;2023-02-03T08:15:42;12.00;80.70
69626;DHT22;56847;51.984;5.088;2023-02-03T08:18:11;12.00;80.60
69626;DHT22;56847;51.984;5.088;2023-02-03T08:20:38;12.00;80.40
69626;DHT22;56847;51.984;5.088;2023-02-03T08:23:05;12.00;80.10
69626;DHT22;56847;51.984;5.088;2023-02-03T08:25:32;12.00;80.50
69626;DHT22;56847;51.984;5.088;2023-02-03T08:27:59;12.00;80.20
69626;DHT22;56847;51.984;5.088;2023-02-03T08:30:26;12.10;80.30
69626;DHT22;56847;51.984;5.088;2023-02-03T08:32:53;12.10;80.30
69626;DHT22;56847;51.984;5.088;2023-02-03T08:35:23;12.10;80.00
69626;DHT22;56847;51.984;5.088;2023-02-03T08:37:50;12.10;79.90
69626;DHT22;56847;51.984;5.088;2023-02-03T08:40:17;12.20;79.80
69626;DHT22;56847;51.984;5.088;2023-02-03T08:42:44;12.20;80.00
69626;DHT22;56847;51.984;5.088;2023-02-03T08:45:11;12.20;79.90
69626;DHT22;56847;51.984;5.088;2023-02-03T08:47:38;12.30;79.90
69626;DHT22;56847;51.984;5.088;2023-02-03T08:50:06;12.30;79.50
69626;DHT22;56847;51.984;5.088;2023-02-03T08:52:34;12.30;80.10
69626;DHT22;56847;51.984;5.088;2023-02-03T08:55:00;12.40;79.40
69626;DHT22;56847;51.984;5.088;2023-02-03T08:57:32;12.40;79.70
69626;DHT22;56847;51.984;5.088;2023-02-03T08:59:59;12.40;79.70
69626;DHT22;56847;51.984;5.088;2023-02-03T09:02:26;12.50;79.70
69626;DHT22;56847;51.984;5.088;2023-02-03T09:04:53;12.50;78.90
69626;DHT22;56847;51.984;5.088;2023-02-03T09:07:20;12.50;78.70
69626;DHT22;56847;51.984;5.088;2023-02-03T09:09:47;12.50;78.80
69626;DHT22;56847;51.984;5.088;2023-02-03T09:12:14;12.50;78.50
69626;DHT22;56847;51.984;5.088;2023-02-03T09:14:42;12.50;79.10
69626;DHT22;56847;51.984;5.088;2023-02-03T09:17:09;12.60;78.90
69626;DHT22;56847;51.984;5.088;2023-02-03T09:19:36;12.60;78.80
69626;DHT22;56847;51.984;5.088;2023-02-03T09:22:03;12.60;78.60
69626;DHT22;56847;51.984;5.088;2023-02-03T09:24:31;12.60;78.70
69626;DHT22;56847;51.984;5.088;2023-02-03T09:26:58;12.70;78.80
69626;DHT22;56847;51.984;5.088;2023-02-03T09:29:30;12.70;79.30
69626;DHT22;56847;51.984;5.088;2023-02-03T09:31:57;12.80;78.40
69626;DHT22;56847;51.984;5.088;2023-02-03T09:34:24;12.80;79.00
69626;DHT22;56847;51.984;5.088;2023-02-03T09:36:52;12.80;78.80
69626;DHT22;56847;51.984;5.088;2023-02-03T09:39:24;12.80;78.40
69626;DHT22;56847;51.984;5.088;2023-02-03T09:47:19;12.90;77.90
69626;DHT22;56847;51.984;5.088;2023-02-03T09:49:49;13.00;78.30
69626;DHT22;56847;51.984;5.088;2023-02-03T09:52:34;13.00;78.20
69626;DHT22;56847;51.984;5.088;2023-02-03T09:55:35;13.00;78.50
69626;DHT22;56847;51.984;5.088;2023-02-03T09:58:15;13.10;78.10
69626;DHT22;56847;51.984;5.088;2023-02-03T10:03:34;13.10;77.90
69626;DHT22;56847;51.984;5.088;2023-02-03T10:06:30;13.10;77.90
69626;DHT22;56847;51.984;5.088;2023-02-03T10:11:55;13.10;78.00
69626;DHT22;56847;51.984;5.088;2023-02-03T10:22:37;13.20;77.80
69626;DHT22;56847;51.984;5.088;2023-02-03T10:25:22;13.10;77.40
69626;DHT22;56847;51.984;5.088;2023-02-03T10:27:55;13.10;77.30
69626;DHT22;56847;51.984;5.088;2023-02-03T10:30:27;13.10;76.70
69626;DHT22;56847;51.984;5.088;2023-02-03T10:33:11;13.10;76.60
69626;DHT22;56847;51.984;5.088;2023-02-03T10:35:59;13.10;76.50
69626;DHT22;56847;51.984;5.088;2023-02-03T10:40:59;13.10;76.70
69626;DHT22;56847;51.984;5.088;2023-02-03T10:43:28;13.10;76.00
69626;DHT22;56847;51.984;5.088;2023-02-03T10:46:27;13.10;76.60
69626;DHT22;56847;51.984;5.088;2023-02-03T10:48:56;13.10;76.50
69626;DHT22;56847;51.984;5.088;2023-02-03T10:51:28;13.10;76.30
69626;DHT22;56847;51.984;5.088;2023-02-03T10:53:59;13.20;76.40
69626;DHT22;56847;51.984;5.088;2023-02-03T10:56:36;13.30;77.10
69626;DHT22;56847;51.984;5.088;2023-02-03T10:59:05;13.30;76.60
69626;DHT22;56847;51.984;5.088;2023-02-03T11:01:41;13.30;76.00
69626;DHT22;56847;51.984;5.088;2023-02-03T11:04:32;13.40;76.50
69626;DHT22;56847;51.984;5.088;2023-02-03T11:07:05;13.40;75.40
69626;DHT22;56847;51.984;5.088;2023-02-03T11:09:40;13.40;75.90
69626;DHT22;56847;51.984;5.088;2023-02-03T11:12:14;13.40;75.30
69626;DHT22;56847;51.984;5.088;2023-02-03T11:14:44;13.40;75.80
69626;DHT22;56847;51.984;5.088;2023-02-03T11:17:25;13.40;76.30
69626;DHT22;56847;51.984;5.088;2023-02-03T11:20:14;13.50;76.00
69626;DHT22;56847;51.984;5.088;2023-02-03T11:22:43;13.40;74.80
69626;DHT22;56847;51.984;5.088;2023-02-03T11:25:19;13.40;75.60
69626;DHT22;56847;51.984;5.088;2023-02-03T11:27:48;13.50;75.60
69626;DHT22;56847;51.984;5.088;2023-02-03T11:30:25;13.50;74.80
69626;DHT22;56847;51.984;5.088;2023-02-03T11:32:53;13.50;75.40
69626;DHT22;56847;51.984;5.088;2023-02-03T11:35:22;13.60;75.20
69626;DHT22;56847;51.984;5.088;2023-02-03T11:37:52;13.60;75.80
69626;DHT22;56847;51.984;5.088;2023-02-03T11:40:30;13.70;75.40
69626;DHT22;56847;51.984;5.088;2023-02-03T11:43:14;13.70;74.80
69626;DHT22;56847;51.984;5.088;2023-02-03T11:45:44;13.70;75.50
69626;DHT22;56847;51.984;5.088;2023-02-03T11:51:23;13.70;74.50
69626;DHT22;56847;51.984;5.088;2023-02-03T11:57:04;13.70;74.90
69626;DHT22;56847;51.984;5.088;2023-02-03T11:59:59;13.70;74.50
69626;DHT22;56847;51.984;5.088;2023-02-03T12:08:24;13.80;74.30
69626;DHT22;56847;51.984;5.088;2023-02-03T12:11:22;13.80;74.50
69626;DHT22;56847;51.984;5.088;2023-02-03T12:20:49;13.90;74.80
69626;DHT22;56847;51.984;5.088;2023-02-03T12:26:04;13.90;74.20
69626;DHT22;56847;51.984;5.088;2023-02-03T12:34:38;13.70;74.70
69626;DHT22;56847;51.984;5.088;2023-02-03T12:37:16;13.80;74.60
69626;DHT22;56847;51.984;5.088;2023-02-03T12:39:52;13.70;73.70
69626;DHT22;56847;51.984;5.088;2023-02-03T12:42:54;13.70;75.00
69626;DHT22;56847;51.984;5.088;2023-02-03T12:45:25;13.70;74.80
69626;DHT22;56847;51.984;5.088;2023-02-03T12:47:55;13.70;74.70
69626;DHT22;56847;51.984;5.088;2023-02-03T12:50:36;13.60;74.60
69626;DHT22;56847;51.984;5.088;2023-02-03T12:53:16;13.60;74.80
69626;DHT22;56847;51.984;5.088;2023-02-03T12:55:49;13.60;75.40
69626;DHT22;56847;51.984;5.088;2023-02-03T12:58:22;13.70;75.80
69626;DHT22;56847;51.984;5.088;2023-02-03T13:00:53;13.60;75.30
69626;DHT22;56847;51.984;5.088;2023-02-03T13:06:19;13.60;75.60
69626;DHT22;56847;51.984;5.088;2023-02-03T13:09:22;13.60;75.40
69626;DHT22;56847;51.984;5.088;2023-02-03T13:18:03;13.50;75.50
69626;DHT22;56847;51.984;5.088;2023-02-03T13:20:34;13.50;75.30
69626;DHT22;56847;51.984;5.088;2023-02-03T13:23:10;13.40;75.50
69626;DHT22;56847;51.984;5.088;2023-02-03T13:31:58;13.10;76.60
69626;DHT22;56847;51.984;5.088;2023-02-03T13:34:43;13.00;76.90
69626;DHT22;56847;51.984;5.088;2023-02-03T13:42:57;12.70;78.20
69626;DHT22;56847;51.984;5.088;2023-02-03T13:45:31;12.70;78.50
69626;DHT22;56847;51.984;5.088;2023-02-03T13:48:17;12.60;78.70
69626;DHT22;56847;51.984;5.088;2023-02-03T13:50:46;12.60;78.90
69626;DHT22;56847;51.984;5.088;2023-02-03T13:53:21;12.60;79.20
69626;DHT22;56847;51.984;5.088;2023-02-03T13:55:55;12.70;78.90
69626;DHT22;56847;51.984;5.088;2023-02-03T13:58:30;12.70;78.90
69626;DHT22;56847;51.984;5.088;2023-02-03T14:01:02;12.80;79.00
69626;DHT22;56847;51.984;5.088;2023-02-03T14:05:58;12.80;78.60
69626;DHT22;56847;51.984;5.088;2023-02-03T14:16:35;12.80;77.90
69626;DHT22;56847;51.984;5.088;2023-02-03T14:19:03;12.80;77.80
69626;DHT22;56847;51.984;5.088;2023-02-03T14:21:50;12.80;77.90
69626;DHT22;56847;51.984;5.088;2023-02-03T14:24:18;12.80;77.70
69626;DHT22;56847;51.984;5.088;2023-02-03T14:26:51;12.80;77.70
69626;DHT22;56847;51.984;5.088;2023-02-03T14:29:28;12.80;77.60
69626;DHT22;56847;51.984;5.088;2023-02-03T14:31:58;12.70;77.80
69626;DHT22;56847;51.984;5.088;2023-02-03T14:34:29;12.80;77.60
69626;DHT22;56847;51.984;5.088;2023-02-03T14:37:11;12.70;77.60
69626;DHT22;56847;51.984;5.088;2023-02-03T14:40:02;12.70;77.70
69626;DHT22;56847;51.984;5.088;2023-02-03T14:42:49;12.80;77.80
69626;DHT22;56847;51.984;5.088;2023-02-03T14:54:31;12.70;77.20
69626;DHT22;56847;51.984;5.088;2023-02-03T14:57:15;12.70;77.50
69626;DHT22;56847;51.984;5.088;2023-02-03T15:05:33;12.70;77.20
69626;DHT22;56847;51.984;5.088;2023-02-03T15:08:01;12.70;76.90
69626;DHT22;56847;51.984;5.088;2023-02-03T15:10:49;12.70;76.50
69626;DHT22;56847;51.984;5.088;2023-02-03T15:13:27;12.60;76.40
69626;DHT22;56847;51.984;5.088;2023-02-03T15:15:56;12.70;77.20
69626;DHT22;56847;51.984;5.088;2023-02-03T15:18:29;12.70;76.30
69626;DHT22;56847;51.984;5.088;2023-02-03T15:20:57;12.70;76.70
69626;DHT22;56847;51.984;5.088;2023-02-03T15:23:30;12.70;76.80
69626;DHT22;56847;51.984;5.088;2023-02-03T15:26:13;12.70;76.10
69626;DHT22;56847;51.984;5.088;2023-02-03T15:28:41;12.60;76.50
69626;DHT22;56847;51.984;5.088;2023-02-03T15:31:18;12.60;76.40
69626;DHT22;56847;51.984;5.088;2023-02-03T15:33:46;12.60;76.40
69626;DHT22;56847;51.984;5.088;2023-02-03T15:36:22;12.60;76.20
69626;DHT22;56847;51.984;5.088;2023-02-03T15:41:39;12.60;76.50
69626;DHT22;56847;51.984;5.088;2023-02-03T15:44:13;12.60;76.70
69626;DHT22;56847;51.984;5.088;2023-02-03T15:46:49;12.60;76.50
69626;DHT22;56847;51.984;5.088;2023-02-03T15:49:19;12.60;76.80
69626;DHT22;56847;51.984;5.088;2023-02-03T15:51:54;12.60;76.70
69626;DHT22;56847;51.984;5.088;2023-02-03T15:54:36;12.50;76.60
69626;DHT22;56847;51.984;5.088;2023-02-03T15:57:18;12.50;76.70
69626;DHT22;56847;51.984;5.088;2023-02-03T15:59:56;12.40;77.00
69626;DHT22;56847;51.984;5.088;2023-02-03T16:02:31;12.40;77.10
69626;DHT22;56847;51.984;5.088;2023-02-03T16:07:45;12.30;77.30
69626;DHT22;56847;51.984;5.088;2023-02-03T16:10:29;12.20;77.40
69626;DHT22;56847;51.984;5.088;2023-02-03T16:16:17;12.10;77.50
69626;DHT22;56847;51.984;5.088;2023-02-03T16:18:54;12.00;77.80
69626;DHT22;56847;51.984;5.088;2023-02-03T16:21:52;12.00;78.00
69626;DHT22;56847;51.984;5.088;2023-02-03T16:24:48;11.90;78.10
69626;DHT22;56847;51.984;5.088;2023-02-03T16:27:30;11.90;78.30
69626;DHT22;56847;51.984;5.088;2023-02-03T16:33:03;11.80;78.50
69626;DHT22;56847;51.984;5.088;2023-02-03T16:35:55;11.80;78.40
69626;DHT22;56847;51.984;5.088;2023-02-03T16:38:48;11.70;78.70
69626;DHT22;56847;51.984;5.088;2023-02-03T16:41:35;11.70;78.70
69626;DHT22;56847;51.984;5.088;2023-02-03T16:44:22;11.70;78.70
69626;DHT22;56847;51.984;5.088;2023-02-03T16:47:27;11.70;78.60
69626;DHT22;56847;51.984;5.088;2023-02-03T16:50:16;11.70;78.70
69626;DHT22;56847;51.984;5.088;2023-02-03T16:53:08;11.70;78.80
69626;DHT22;56847;51.984;5.088;2023-02-03T16:55:37;11.70;78.80
69626;DHT22;56847;51.984;5.088;2023-02-03T16:58:04;11.70;78.80
69626;DHT22;56847;51.984;5.088;2023-02-03T17:00:31;11.70;78.70
69626;DHT22;56847;51.984;5.088;2023-02-03T17:03:03;11.80;78.80
69626;DHT22;56847;51.984;5.088;2023-02-03T17:05:30;11.80;78.70
69626;DHT22;56847;51.984;5.088;2023-02-03T17:07:58;11.80;78.60
69626;DHT22;56847;51.984;5.088;2023-02-03T17:10:25;11.80;78.60
69626;DHT22;56847;51.984;5.088;2023-02-03T17:12:53;11.80;78.60
69626;DHT22;56847;51.984;5.088;2023-02-03T17:15:20;11.80;78.70
69626;DHT22;56847;51.984;5.088;2023-02-03T17:17:47;11.80;78.60
69626;DHT22;56847;51.984;5.088;2023-02-03T17:20:15;11.80;78.70
69626;DHT22;56847;51.984;5.088;2023-02-03T17:22:42;11.80;78.80
69626;DHT22;56847;51.984;5.088;2023-02-03T17:25:10;11.80;78.80
69626;DHT22;56847;51.984;5.088;2023-02-03T17:27:42;11.80;78.90
69626;DHT22;56847;51.984;5.088;2023-02-03T17:30:09;11.80;78.80
69626;DHT22;56847;51.984;5.088;2023-02-03T17:32:43;11.70;78.50
69626;DHT22;56847;51.984;5.088;2023-02-03T17:35:11;11.80;78.50
69626;DHT22;56847;51.984;5.088;2023-02-03T17:37:39;11.70;78.10
69626;DHT22;56847;51.984;5.088;2023-02-03T17:40:06;11.70;77.90
69626;DHT22;56847;51.984;5.088;2023-02-03T17:42:50;11.70;77.90
69626;DHT22;56847;51.984;5.088;2023-02-03T17:45:39;11.70;77.60
69626;DHT22;56847;51.984;5.088;2023-02-03T17:48:23;11.70;77.40
69626;DHT22;56847;51.984;5.088;2023-02-03T17:53:55;11.70;76.20
69626;DHT22;56847;51.984;5.088;2023-02-03T17:56:23;11.70;76.40
69626;DHT22;56847;51.984;5.088;2023-02-03T17:58:55;11.70;76.00
69626;DHT22;56847;51.984;5.088;2023-02-03T18:01:22;11.60;75.80
69626;DHT22;56847;51.984;5.088;2023-02-03T18:03:54;11.70;75.80
69626;DHT22;56847;51.984;5.088;2023-02-03T18:06:22;11.60;75.50
69626;DHT22;56847;51.984;5.088;2023-02-03T18:08:50;11.60;75.20
69626;DHT22;56847;51.984;5.088;2023-02-03T18:11:18;11.60;75.00
69626;DHT22;56847;51.984;5.088;2023-02-03T18:13:48;11.70;75.00
69626;DHT22;56847;51.984;5.088;2023-02-03T18:16:18;11.60;74.90
69626;DHT22;56847;51.984;5.088;2023-02-03T18:18:48;11.70;74.80
69626;DHT22;56847;51.984;5.088;2023-02-03T18:21:18;11.70;74.90
69626;DHT22;56847;51.984;5.088;2023-02-03T18:23:45;11.70;74.80
69626;DHT22;56847;51.984;5.088;2023-02-03T18:26:14;11.70;74.10
69626;DHT22;56847;51.984;5.088;2023-02-03T18:28:41;11.70;74.60
69626;DHT22;56847;51.984;5.088;2023-02-03T18:31:13;11.70;74.30